TimeEEST,TemperatureF,Dew PointF,Humidity,Sea Level PressureIn,VisibilityMPH,Wind Direction,Wind SpeedMPH,Gust SpeedMPH,PrecipitationIn,Events,Conditions,WindDirDegrees,DateUTC
12:20 AM,64.4,59.0,83,29.86,6.2,ESE,4.6,-,N/A,,Mostly Cloudy,120,2012-10-08 21:20:00
12:50 AM,64.4,60.8,88,29.86,6.2,ESE,4.6,-,N/A,,Mostly Cloudy,120,2012-10-08 21:50:00
1:20 AM,64.4,59.0,83,29.86,6.2,Variable,1.2,-,N/A,,Mostly Cloudy,0,2012-10-08 22:20:00
1:50 AM,64.4,59.0,83,29.86,6.2,SE,2.3,-,N/A,,Mostly Cloudy,140,2012-10-08 22:50:00
2:20 AM,60.8,55.4,82,29.86,6.2,ESE,5.8,-,N/A,,Scattered Clouds,120,2012-10-08 23:20:00
2:50 AM,62.6,57.2,82,29.86,6.2,SSE,3.5,-,N/A,,Scattered Clouds,150,2012-10-08 23:50:00
3:20 AM,60.8,57.2,88,29.86,6.2,Variable,2.3,-,N/A,,Scattered Clouds,0,2012-10-09 00:20:00
3:50 AM,60.8,57.2,88,29.86,6.2,Calm,Calm,-,N/A,,Scattered Clouds,0,2012-10-09 00:50:00
4:20 AM,62.6,59.0,88,29.86,6.2,SSE,3.5,-,N/A,,Scattered Clouds,160,2012-10-09 01:20:00
4:50 AM,60.8,57.2,88,29.86,6.2,East,2.3,-,N/A,,Scattered Clouds,100,2012-10-09 01:50:00
5:20 AM,60.8,57.2,88,29.83,6.2,Variable,2.3,-,N/A,,Scattered Clouds,0,2012-10-09 02:20:00
5:50 AM,60.8,57.2,88,29.86,6.2,SE,2.3,-,N/A,,Scattered Clouds,140,2012-10-09 02:50:00
6:20 AM,57.2,55.4,94,29.86,6.2,East,3.5,-,N/A,,Scattered Clouds,100,2012-10-09 03:20:00
7:20 AM,57.2,55.4,94,29.86,6.2,SE,3.5,-,N/A,,Partly Cloudy,130,2012-10-09 04:20:00
7:50 AM,59.0,55.4,88,29.86,6.2,ESE,3.5,-,N/A,,Partly Cloudy,120,2012-10-09 04:50:00
8:20 AM,60.8,57.2,88,29.86,-9999.0,Variable,2.3,-,N/A,,Clear,0,2012-10-09 05:20:00
8:50 AM,64.4,57.2,77,29.86,6.2,ESE,4.6,-,N/A,,Partly Cloudy,120,2012-10-09 05:50:00
9:20 AM,68.0,57.2,68,29.86,6.2,ENE,3.5,-,N/A,,Partly Cloudy,60,2012-10-09 06:20:00
9:50 AM,71.6,59.0,64,29.86,6.2,Variable,2.3,-,N/A,,Partly Cloudy,0,2012-10-09 06:50:00
10:20 AM,73.4,57.2,57,29.86,6.2,Variable,3.5,-,N/A,,Partly Cloudy,0,2012-10-09 07:20:00
10:50 AM,77.0,57.2,50,29.86,6.2,WNW,5.8,-,N/A,,Partly Cloudy,290,2012-10-09 07:50:00
11:20 AM,77.0,57.2,50,29.86,6.2,West,5.8,-,N/A,,Partly Cloudy,270,2012-10-09 08:20:00
11:50 AM,78.8,51.8,39,29.86,6.2,West,5.8,-,N/A,,Partly Cloudy,270,2012-10-09 08:50:00
12:20 PM,80.6,53.6,39,29.86,6.2,WNW,6.9,-,N/A,,Partly Cloudy,290,2012-10-09 09:20:00
12:50 PM,82.4,55.4,39,29.86,6.2,WNW,10.4,-,N/A,,Partly Cloudy,290,2012-10-09 09:50:00
1:20 PM,80.6,57.2,45,29.86,6.2,West,13.8,-,N/A,,Partly Cloudy,270,2012-10-09 10:20:00
1:50 PM,78.8,57.2,47,29.83,6.2,West,16.1,-,N/A,,Partly Cloudy,260,2012-10-09 10:50:00
2:20 PM,80.6,59.0,48,29.83,6.2,West,16.1,-,N/A,,Partly Cloudy,270,2012-10-09 11:20:00
2:50 PM,80.6,59.0,48,29.83,6.2,West,17.3,-,N/A,,Scattered Clouds,260,2012-10-09 11:50:00
3:20 PM,80.6,53.6,39,29.83,6.2,West,16.1,-,N/A,,Scattered Clouds,260,2012-10-09 12:20:00
3:50 PM,80.6,50.0,34,29.80,6.2,West,16.1,-,N/A,,Scattered Clouds,260,2012-10-09 12:50:00
4:20 PM,78.8,51.8,39,29.80,6.2,West,15.0,-,N/A,,Scattered Clouds,260,2012-10-09 13:20:00
4:50 PM,78.8,51.8,39,29.80,6.2,WSW,12.7,-,N/A,,Scattered Clouds,240,2012-10-09 13:50:00
5:20 PM,78.8,53.6,42,29.80,6.2,WSW,10.4,-,N/A,,Scattered Clouds,250,2012-10-09 14:20:00
5:50 PM,77.0,59.0,54,29.80,6.2,SSW,6.9,-,N/A,,Mostly Cloudy,210,2012-10-09 14:50:00
6:20 PM,75.2,60.8,61,29.83,6.2,South,8.1,-,N/A,,Mostly Cloudy,180,2012-10-09 15:20:00
6:50 PM,73.4,62.6,69,29.83,6.2,ESE,8.1,-,N/A,,Mostly Cloudy,120,2012-10-09 15:50:00
7:20 PM,73.4,60.8,65,29.83,6.2,SSE,6.9,-,N/A,,Mostly Cloudy,160,2012-10-09 16:20:00
7:50 PM,69.8,59.0,68,29.83,6.2,SE,4.6,-,N/A,,Mostly Cloudy,130,2012-10-09 16:50:00
8:20 PM,68.0,59.0,73,29.83,6.2,East,3.5,-,N/A,,Mostly Cloudy,100,2012-10-09 17:20:00
8:50 PM,68.0,59.0,73,29.83,6.2,East,3.5,-,N/A,,Mostly Cloudy,80,2012-10-09 17:50:00
9:20 PM,68.0,57.2,68,29.83,6.2,SE,3.5,-,N/A,,Mostly Cloudy,130,2012-10-09 18:20:00
9:50 PM,68.0,57.2,68,29.83,6.2,SSE,5.8,-,N/A,,Mostly Cloudy,150,2012-10-09 18:50:00
10:20 PM,66.2,57.2,73,29.83,6.2,SE,6.9,-,N/A,,Mostly Cloudy,130,2012-10-09 19:20:00
10:50 PM,66.2,57.2,73,29.83,6.2,SSE,4.6,-,N/A,,Mostly Cloudy,150,2012-10-09 19:50:00
11:20 PM,64.4,57.2,77,29.83,6.2,ESE,4.6,-,N/A,,Mostly Cloudy,120,2012-10-09 20:20:00
11:50 PM,64.4,57.2,77,29.83,6.2,SE,4.6,-,N/A,,Mostly Cloudy,140,2012-10-09 20:50:00